This is the latest recevied weather packets stored in our database for station/object IW1RID-3. If no packets are shown the sender has not sent any weather packets the latest 10 day(s).
| Time | Temp. | Humidity | Pressure | Rain* | Wind** | Luminosity | Snow |
|---|---|---|---|---|---|---|---|
| 1787604611 | 23.33° C | 90% | 1067.3 hPa | - | - | - | - |
| 1787603406 | 23.33° C | 87% | 1067.6 hPa | - | - | - | - |
| 1787602202 | 23.89° C | 91% | 1068.3 hPa | - | - | - | - |
| 1787600996 | 23.89° C | 85% | 1068.6 hPa | - | - | - | - |
| 1787599792 | 23.89° C | 87% | 1068.8 hPa | - | - | - | - |
| 1787598586 | 25° C | 82% | 1069.8 hPa | - | - | - | - |
| 1787597381 | 25.56° C | 74% | 1068.8 hPa | - | - | - | - |
| 1787596177 | 25.56° C | 74% | 1069 hPa | - | - | - | - |
| 1787594971 | 26.67° C | 72% | 1070.2 hPa | - | - | - | - |
| 1787593763 | 27.22° C | 70% | 1070 hPa | - | - | - | - |
| 1787592557 | 27.22° C | 67% | 1070.5 hPa | - | - | - | - |
| 1787591352 | 26.67° C | 69% | 1071.1 hPa | - | - | - | - |
| 1787590145 | 27.22° C | 66% | 1071.3 hPa | - | - | - | - |
| 1787588940 | 27.78° C | 64% | 1071.8 hPa | - | - | - | - |
| 1787587734 | 28.89° C | 60% | 1072.1 hPa | - | - | - | - |
| 1787586528 | 27.78° C | 65% | 1072.6 hPa | - | - | - | - |
| 1787584117 | 28.33° C | 62% | 1072.4 hPa | - | - | - | - |
| 1787582911 | 28.89° C | 59% | 1072.3 hPa | - | - | - | - |
| 1787581706 | 30.56° C | 55% | 1072.8 hPa | - | - | - | - |
| 1787578092 | 31.67° C | 52% | 1074 hPa | - | - | - | - |
| 1787576887 | 32.22° C | 51% | 1073.7 hPa | - | - | - | - |
| 1787575681 | 31.67° C | 50% | 1074.1 hPa | - | - | - | - |
| 1787574345 | 31.11° C | 49% | 1073.9 hPa | - | - | - | - |
| 1787573140 | 30.56° C | 53% | 1073.9 hPa | - | - | - | - |
| 1787571935 | 30° C | 52% | 1073.7 hPa | - | - | - | - |
* Rain since midnight (hover to see other rain measurements)
** Current wind speed in m/s (hover to see current wind gust speed)